sensor_id;sensor_type;location;lat;lon;timestamp;P1;durP1;ratioP1;P2;durP2;ratioP2
53062;SDS011;40529;52.172;10.548;2023-05-07T00:01:35;35.00;;;21.33;;
53062;SDS011;40529;52.172;10.548;2023-05-07T00:04:01;35.75;;;20.85;;
53062;SDS011;40529;52.172;10.548;2023-05-07T00:06:28;37.08;;;22.73;;
53062;SDS011;40529;52.172;10.548;2023-05-07T00:08:55;32.85;;;19.50;;
53062;SDS011;40529;52.172;10.548;2023-05-07T00:11:22;33.40;;;20.13;;
53062;SDS011;40529;52.172;10.548;2023-05-07T00:13:48;30.35;;;18.90;;
53062;SDS011;40529;52.172;10.548;2023-05-07T00:16:14;29.67;;;17.42;;
53062;SDS011;40529;52.172;10.548;2023-05-07T00:18:40;27.55;;;15.55;;
53062;SDS011;40529;52.172;10.548;2023-05-07T00:21:06;26.80;;;16.02;;
53062;SDS011;40529;52.172;10.548;2023-05-07T00:23:32;25.02;;;15.57;;
53062;SDS011;40529;52.172;10.548;2023-05-07T00:25:58;24.05;;;14.40;;
53062;SDS011;40529;52.172;10.548;2023-05-07T00:28:24;21.95;;;14.80;;
53062;SDS011;40529;52.172;10.548;2023-05-07T00:30:50;21.85;;;14.27;;
53062;SDS011;40529;52.172;10.548;2023-05-07T00:33:16;23.77;;;14.82;;
53062;SDS011;40529;52.172;10.548;2023-05-07T00:35:42;23.33;;;14.50;;
53062;SDS011;40529;52.172;10.548;2023-05-07T00:38:08;21.58;;;14.00;;
53062;SDS011;40529;52.172;10.548;2023-05-07T00:40:34;20.85;;;14.30;;
53062;SDS011;40529;52.172;10.548;2023-05-07T00:43:00;21.25;;;14.05;;
53062;SDS011;40529;52.172;10.548;2023-05-07T00:45:26;19.45;;;14.05;;
53062;SDS011;40529;52.172;10.548;2023-05-07T00:47:54;18.90;;;13.02;;
53062;SDS011;40529;52.172;10.548;2023-05-07T00:50:20;20.52;;;13.70;;
53062;SDS011;40529;52.172;10.548;2023-05-07T00:52:47;20.80;;;12.93;;
53062;SDS011;40529;52.172;10.548;2023-05-07T00:55:13;19.33;;;13.35;;
53062;SDS011;40529;52.172;10.548;2023-05-07T00:57:40;19.45;;;13.70;;
53062;SDS011;40529;52.172;10.548;2023-05-07T01:00:06;19.92;;;13.52;;
53062;SDS011;40529;52.172;10.548;2023-05-07T01:02:33;22.92;;;14.52;;
53062;SDS011;40529;52.172;10.548;2023-05-07T01:05:00;20.33;;;13.73;;
53062;SDS011;40529;52.172;10.548;2023-05-07T01:07:26;18.88;;;13.00;;
53062;SDS011;40529;52.172;10.548;2023-05-07T01:09:52;21.27;;;13.70;;
53062;SDS011;40529;52.172;10.548;2023-05-07T01:12:19;21.98;;;14.20;;
53062;SDS011;40529;52.172;10.548;2023-05-07T01:14:45;23.02;;;14.55;;
53062;SDS011;40529;52.172;10.548;2023-05-07T01:17:11;20.92;;;13.70;;
53062;SDS011;40529;52.172;10.548;2023-05-07T01:19:37;23.20;;;15.00;;
53062;SDS011;40529;52.172;10.548;2023-05-07T01:22:06;24.33;;;15.23;;
53062;SDS011;40529;52.172;10.548;2023-05-07T01:24:33;24.45;;;15.07;;
53062;SDS011;40529;52.172;10.548;2023-05-07T01:26:59;21.25;;;14.20;;
53062;SDS011;40529;52.172;10.548;2023-05-07T01:29:26;19.52;;;13.32;;
53062;SDS011;40529;52.172;10.548;2023-05-07T01:31:52;22.30;;;13.77;;
53062;SDS011;40529;52.172;10.548;2023-05-07T01:34:18;21.13;;;14.18;;
53062;SDS011;40529;52.172;10.548;2023-05-07T01:36:46;21.30;;;13.30;;
53062;SDS011;40529;52.172;10.548;2023-05-07T01:39:12;20.30;;;13.55;;
53062;SDS011;40529;52.172;10.548;2023-05-07T01:41:39;22.92;;;12.57;;
53062;SDS011;40529;52.172;10.548;2023-05-07T01:44:05;20.95;;;13.10;;
53062;SDS011;40529;52.172;10.548;2023-05-07T01:46:31;18.83;;;12.55;;
53062;SDS011;40529;52.172;10.548;2023-05-07T01:48:58;19.10;;;12.60;;
53062;SDS011;40529;52.172;10.548;2023-05-07T01:51:24;21.50;;;12.82;;
53062;SDS011;40529;52.172;10.548;2023-05-07T01:53:51;17.52;;;12.05;;
53062;SDS011;40529;52.172;10.548;2023-05-07T01:56:18;19.60;;;12.30;;
53062;SDS011;40529;52.172;10.548;2023-05-07T01:58:45;17.60;;;11.38;;
53062;SDS011;40529;52.172;10.548;2023-05-07T02:01:12;19.45;;;12.10;;
53062;SDS011;40529;52.172;10.548;2023-05-07T02:03:38;20.73;;;12.32;;
53062;SDS011;40529;52.172;10.548;2023-05-07T02:06:04;20.08;;;11.27;;
53062;SDS011;40529;52.172;10.548;2023-05-07T02:08:31;18.88;;;11.45;;
53062;SDS011;40529;52.172;10.548;2023-05-07T02:10:57;19.00;;;11.25;;
53062;SDS011;40529;52.172;10.548;2023-05-07T02:13:23;17.02;;;11.02;;
53062;SDS011;40529;52.172;10.548;2023-05-07T02:15:49;16.60;;;11.35;;
53062;SDS011;40529;52.172;10.548;2023-05-07T02:18:16;15.48;;;10.68;;
53062;SDS011;40529;52.172;10.548;2023-05-07T02:20:42;16.45;;;9.98;;
53062;SDS011;40529;52.172;10.548;2023-05-07T02:23:08;15.85;;;9.88;;
53062;SDS011;40529;52.172;10.548;2023-05-07T02:25:34;17.02;;;10.32;;
53062;SDS011;40529;52.172;10.548;2023-05-07T02:28:00;17.67;;;10.20;;
53062;SDS011;40529;52.172;10.548;2023-05-07T02:30:26;16.48;;;11.10;;
53062;SDS011;40529;52.172;10.548;2023-05-07T02:32:53;14.50;;;9.90;;
53062;SDS011;40529;52.172;10.548;2023-05-07T02:35:18;18.02;;;10.95;;
53062;SDS011;40529;52.172;10.548;2023-05-07T02:37:45;16.63;;;10.93;;
53062;SDS011;40529;52.172;10.548;2023-05-07T02:40:11;16.80;;;10.85;;
53062;SDS011;40529;52.172;10.548;2023-05-07T02:42:37;16.73;;;10.93;;
53062;SDS011;40529;52.172;10.548;2023-05-07T02:45:03;18.00;;;11.50;;
53062;SDS011;40529;52.172;10.548;2023-05-07T02:47:29;17.75;;;11.63;;
53062;SDS011;40529;52.172;10.548;2023-05-07T02:49:55;18.98;;;12.32;;
53062;SDS011;40529;52.172;10.548;2023-05-07T02:52:21;17.38;;;11.45;;
53062;SDS011;40529;52.172;10.548;2023-05-07T02:54:48;19.73;;;12.48;;
53062;SDS011;40529;52.172;10.548;2023-05-07T02:57:14;19.25;;;12.07;;
53062;SDS011;40529;52.172;10.548;2023-05-07T02:59:40;20.42;;;12.40;;
53062;SDS011;40529;52.172;10.548;2023-05-07T03:02:06;18.58;;;12.18;;
53062;SDS011;40529;52.172;10.548;2023-05-07T03:04:32;17.05;;;11.98;;
53062;SDS011;40529;52.172;10.548;2023-05-07T03:06:58;19.00;;;12.77;;
53062;SDS011;40529;52.172;10.548;2023-05-07T03:09:24;17.17;;;12.10;;
53062;SDS011;40529;52.172;10.548;2023-05-07T03:11:50;18.52;;;11.95;;
53062;SDS011;40529;52.172;10.548;2023-05-07T03:14:17;21.73;;;12.68;;
53062;SDS011;40529;52.172;10.548;2023-05-07T03:16:43;18.58;;;12.25;;
53062;SDS011;40529;52.172;10.548;2023-05-07T03:19:09;19.15;;;12.32;;
53062;SDS011;40529;52.172;10.548;2023-05-07T03:21:35;19.33;;;12.27;;
53062;SDS011;40529;52.172;10.548;2023-05-07T03:24:01;20.23;;;12.90;;
53062;SDS011;40529;52.172;10.548;2023-05-07T03:26:27;18.95;;;13.35;;
53062;SDS011;40529;52.172;10.548;2023-05-07T03:28:53;21.98;;;12.48;;
53062;SDS011;40529;52.172;10.548;2023-05-07T03:31:19;19.83;;;12.80;;
53062;SDS011;40529;52.172;10.548;2023-05-07T03:33:52;17.48;;;12.70;;
53062;SDS011;40529;52.172;10.548;2023-05-07T03:36:18;19.00;;;12.70;;
53062;SDS011;40529;52.172;10.548;2023-05-07T03:38:44;21.17;;;13.20;;
53062;SDS011;40529;52.172;10.548;2023-05-07T03:41:10;17.08;;;11.65;;
53062;SDS011;40529;52.172;10.548;2023-05-07T03:43:36;17.58;;;11.80;;
53062;SDS011;40529;52.172;10.548;2023-05-07T03:46:02;15.13;;;10.30;;
53062;SDS011;40529;52.172;10.548;2023-05-07T03:48:28;17.88;;;11.25;;
53062;SDS011;40529;52.172;10.548;2023-05-07T03:50:55;16.23;;;9.98;;
53062;SDS011;40529;52.172;10.548;2023-05-07T03:53:21;15.88;;;10.88;;
53062;SDS011;40529;52.172;10.548;2023-05-07T03:55:47;16.35;;;10.02;;
53062;SDS011;40529;52.172;10.548;2023-05-07T03:58:14;15.85;;;11.88;;
53062;SDS011;40529;52.172;10.548;2023-05-07T04:00:40;17.55;;;10.82;;
53062;SDS011;40529;52.172;10.548;2023-05-07T04:03:06;15.60;;;10.85;;
53062;SDS011;40529;52.172;10.548;2023-05-07T04:05:32;15.25;;;10.57;;
53062;SDS011;40529;52.172;10.548;2023-05-07T04:07:58;15.57;;;11.35;;
53062;SDS011;40529;52.172;10.548;2023-05-07T04:10:24;16.02;;;10.90;;
53062;SDS011;40529;52.172;10.548;2023-05-07T04:12:50;16.60;;;11.60;;
53062;SDS011;40529;52.172;10.548;2023-05-07T04:15:16;15.65;;;10.90;;
53062;SDS011;40529;52.172;10.548;2023-05-07T04:17:42;15.85;;;11.30;;
53062;SDS011;40529;52.172;10.548;2023-05-07T04:20:09;15.35;;;11.45;;
53062;SDS011;40529;52.172;10.548;2023-05-07T04:22:36;15.68;;;11.00;;
53062;SDS011;40529;52.172;10.548;2023-05-07T04:25:02;17.40;;;11.20;;
53062;SDS011;40529;52.172;10.548;2023-05-07T04:27:28;15.73;;;11.52;;
53062;SDS011;40529;52.172;10.548;2023-05-07T04:29:54;16.30;;;11.05;;
53062;SDS011;40529;52.172;10.548;2023-05-07T04:32:21;14.82;;;11.02;;
53062;SDS011;40529;52.172;10.548;2023-05-07T04:34:47;16.23;;;10.68;;
53062;SDS011;40529;52.172;10.548;2023-05-07T04:37:13;14.73;;;10.77;;
53062;SDS011;40529;52.172;10.548;2023-05-07T04:39:39;15.18;;;10.40;;
53062;SDS011;40529;52.172;10.548;2023-05-07T04:42:05;14.95;;;11.27;;
53062;SDS011;40529;52.172;10.548;2023-05-07T04:44:33;15.77;;;11.43;;
53062;SDS011;40529;52.172;10.548;2023-05-07T04:47:00;14.52;;;11.10;;
53062;SDS011;40529;52.172;10.548;2023-05-07T04:49:26;14.65;;;11.00;;
53062;SDS011;40529;52.172;10.548;2023-05-07T04:51:52;15.60;;;11.20;;
53062;SDS011;40529;52.172;10.548;2023-05-07T04:54:18;15.52;;;11.50;;
53062;SDS011;40529;52.172;10.548;2023-05-07T04:56:44;13.63;;;11.05;;
53062;SDS011;40529;52.172;10.548;2023-05-07T04:59:10;14.55;;;11.38;;
53062;SDS011;40529;52.172;10.548;2023-05-07T05:01:36;15.57;;;11.18;;
53062;SDS011;40529;52.172;10.548;2023-05-07T05:04:02;13.95;;;10.70;;
53062;SDS011;40529;52.172;10.548;2023-05-07T05:06:28;13.95;;;10.80;;
53062;SDS011;40529;52.172;10.548;2023-05-07T05:08:54;12.63;;;10.18;;
53062;SDS011;40529;52.172;10.548;2023-05-07T05:11:20;12.43;;;9.88;;
53062;SDS011;40529;52.172;10.548;2023-05-07T05:13:46;13.00;;;10.27;;
53062;SDS011;40529;52.172;10.548;2023-05-07T05:16:14;15.00;;;11.05;;
53062;SDS011;40529;52.172;10.548;2023-05-07T05:18:40;13.60;;;10.57;;
53062;SDS011;40529;52.172;10.548;2023-05-07T05:21:06;12.75;;;10.20;;
53062;SDS011;40529;52.172;10.548;2023-05-07T05:23:33;15.77;;;10.48;;
53062;SDS011;40529;52.172;10.548;2023-05-07T05:25:59;12.57;;;10.52;;
53062;SDS011;40529;52.172;10.548;2023-05-07T05:28:25;14.77;;;11.10;;
53062;SDS011;40529;52.172;10.548;2023-05-07T05:30:52;14.18;;;10.48;;
53062;SDS011;40529;52.172;10.548;2023-05-07T05:33:18;14.20;;;12.10;;
53062;SDS011;40529;52.172;10.548;2023-05-07T05:35:44;15.43;;;11.77;;
53062;SDS011;40529;52.172;10.548;2023-05-07T05:38:10;15.30;;;11.55;;
53062;SDS011;40529;52.172;10.548;2023-05-07T05:40:36;15.85;;;12.40;;
53062;SDS011;40529;52.172;10.548;2023-05-07T05:43:02;16.17;;;12.85;;
53062;SDS011;40529;52.172;10.548;2023-05-07T05:45:28;18.95;;;14.48;;
53062;SDS011;40529;52.172;10.548;2023-05-07T05:47:56;18.48;;;14.02;;
53062;SDS011;40529;52.172;10.548;2023-05-07T05:50:22;19.17;;;13.75;;
53062;SDS011;40529;52.172;10.548;2023-05-07T05:52:48;20.95;;;15.63;;
53062;SDS011;40529;52.172;10.548;2023-05-07T05:55:14;18.90;;;14.52;;
53062;SDS011;40529;52.172;10.548;2023-05-07T05:57:40;17.60;;;13.73;;
53062;SDS011;40529;52.172;10.548;2023-05-07T06:00:06;17.17;;;13.73;;
53062;SDS011;40529;52.172;10.548;2023-05-07T06:02:33;17.73;;;13.93;;
53062;SDS011;40529;52.172;10.548;2023-05-07T06:04:59;17.33;;;13.20;;
53062;SDS011;40529;52.172;10.548;2023-05-07T06:07:25;16.15;;;13.35;;
53062;SDS011;40529;52.172;10.548;2023-05-07T06:09:51;16.50;;;12.93;;
53062;SDS011;40529;52.172;10.548;2023-05-07T06:12:17;17.15;;;13.55;;
53062;SDS011;40529;52.172;10.548;2023-05-07T06:14:43;18.20;;;13.98;;
53062;SDS011;40529;52.172;10.548;2023-05-07T06:17:09;15.57;;;12.30;;
53062;SDS011;40529;52.172;10.548;2023-05-07T06:19:35;15.40;;;12.00;;
53062;SDS011;40529;52.172;10.548;2023-05-07T06:22:01;16.38;;;12.93;;
53062;SDS011;40529;52.172;10.548;2023-05-07T06:24:27;16.00;;;12.25;;
53062;SDS011;40529;52.172;10.548;2023-05-07T06:26:53;16.10;;;11.85;;
53062;SDS011;40529;52.172;10.548;2023-05-07T06:29:19;15.63;;;12.27;;
53062;SDS011;40529;52.172;10.548;2023-05-07T06:31:45;14.63;;;11.38;;
53062;SDS011;40529;52.172;10.548;2023-05-07T06:34:11;16.13;;;11.75;;
53062;SDS011;40529;52.172;10.548;2023-05-07T06:36:40;15.00;;;12.00;;
53062;SDS011;40529;52.172;10.548;2023-05-07T06:39:07;15.60;;;11.20;;
53062;SDS011;40529;52.172;10.548;2023-05-07T06:41:32;13.85;;;11.05;;
53062;SDS011;40529;52.172;10.548;2023-05-07T06:44:00;14.27;;;11.15;;
53062;SDS011;40529;52.172;10.548;2023-05-07T06:46:26;13.25;;;10.50;;
53062;SDS011;40529;52.172;10.548;2023-05-07T06:48:52;13.60;;;10.65;;
53062;SDS011;40529;52.172;10.548;2023-05-07T06:51:19;13.75;;;10.20;;
53062;SDS011;40529;52.172;10.548;2023-05-07T06:53:45;12.80;;;10.68;;
53062;SDS011;40529;52.172;10.548;2023-05-07T06:56:11;13.93;;;11.00;;
53062;SDS011;40529;52.172;10.548;2023-05-07T06:58:37;13.55;;;10.05;;
53062;SDS011;40529;52.172;10.548;2023-05-07T07:01:03;13.30;;;10.35;;
53062;SDS011;40529;52.172;10.548;2023-05-07T07:03:29;16.05;;;11.43;;
53062;SDS011;40529;52.172;10.548;2023-05-07T07:05:55;12.93;;;10.30;;
53062;SDS011;40529;52.172;10.548;2023-05-07T07:08:21;13.07;;;10.38;;
53062;SDS011;40529;52.172;10.548;2023-05-07T07:10:48;13.38;;;10.35;;
53062;SDS011;40529;52.172;10.548;2023-05-07T07:13:14;14.52;;;10.48;;
53062;SDS011;40529;52.172;10.548;2023-05-07T07:15:40;14.85;;;11.38;;
53062;SDS011;40529;52.172;10.548;2023-05-07T07:18:06;14.25;;;10.77;;
53062;SDS011;40529;52.172;10.548;2023-05-07T07:20:32;13.30;;;11.15;;
53062;SDS011;40529;52.172;10.548;2023-05-07T07:22:58;14.95;;;11.23;;
53062;SDS011;40529;52.172;10.548;2023-05-07T07:25:24;14.25;;;10.85;;
53062;SDS011;40529;52.172;10.548;2023-05-07T07:27:50;16.50;;;10.98;;
53062;SDS011;40529;52.172;10.548;2023-05-07T07:30:16;13.85;;;10.30;;
53062;SDS011;40529;52.172;10.548;2023-05-07T07:32:43;12.82;;;10.27;;
53062;SDS011;40529;52.172;10.548;2023-05-07T07:35:09;15.15;;;10.93;;
53062;SDS011;40529;52.172;10.548;2023-05-07T07:37:35;14.18;;;11.05;;
53062;SDS011;40529;52.172;10.548;2023-05-07T07:40:01;15.07;;;11.23;;
53062;SDS011;40529;52.172;10.548;2023-05-07T07:42:28;14.60;;;11.25;;
53062;SDS011;40529;52.172;10.548;2023-05-07T07:44:54;14.23;;;11.18;;
53062;SDS011;40529;52.172;10.548;2023-05-07T07:47:22;17.92;;;11.52;;
53062;SDS011;40529;52.172;10.548;2023-05-07T07:49:48;14.60;;;11.40;;
53062;SDS011;40529;52.172;10.548;2023-05-07T07:52:14;14.52;;;11.50;;
53062;SDS011;40529;52.172;10.548;2023-05-07T07:54:40;13.55;;;10.68;;
53062;SDS011;40529;52.172;10.548;2023-05-07T07:57:06;14.75;;;11.02;;
53062;SDS011;40529;52.172;10.548;2023-05-07T07:59:32;13.82;;;10.48;;
53062;SDS011;40529;52.172;10.548;2023-05-07T08:01:58;14.23;;;10.30;;
53062;SDS011;40529;52.172;10.548;2023-05-07T08:04:24;12.30;;;9.70;;
53062;SDS011;40529;52.172;10.548;2023-05-07T08:06:50;12.27;;;9.95;;
53062;SDS011;40529;52.172;10.548;2023-05-07T08:09:16;14.85;;;10.70;;
53062;SDS011;40529;52.172;10.548;2023-05-07T08:11:42;13.20;;;10.68;;
53062;SDS011;40529;52.172;10.548;2023-05-07T08:14:08;13.70;;;10.40;;
53062;SDS011;40529;52.172;10.548;2023-05-07T08:16:34;14.40;;;10.82;;
53062;SDS011;40529;52.172;10.548;2023-05-07T08:19:00;15.98;;;11.70;;
53062;SDS011;40529;52.172;10.548;2023-05-07T08:21:26;14.60;;;10.65;;
53062;SDS011;40529;52.172;10.548;2023-05-07T08:23:52;16.88;;;11.55;;
53062;SDS011;40529;52.172;10.548;2023-05-07T08:26:18;14.05;;;11.13;;
53062;SDS011;40529;52.172;10.548;2023-05-07T08:28:45;14.45;;;11.63;;
53062;SDS011;40529;52.172;10.548;2023-05-07T08:31:11;15.68;;;11.30;;
53062;SDS011;40529;52.172;10.548;2023-05-07T08:33:37;16.23;;;11.77;;
53062;SDS011;40529;52.172;10.548;2023-05-07T08:36:03;14.85;;;12.18;;
53062;SDS011;40529;52.172;10.548;2023-05-07T08:38:31;15.90;;;12.27;;
53062;SDS011;40529;52.172;10.548;2023-05-07T08:40:57;13.80;;;10.90;;
53062;SDS011;40529;52.172;10.548;2023-05-07T08:43:24;15.95;;;11.18;;
53062;SDS011;40529;52.172;10.548;2023-05-07T08:45:53;15.15;;;12.20;;
53062;SDS011;40529;52.172;10.548;2023-05-07T08:48:21;12.93;;;10.50;;
53062;SDS011;40529;52.172;10.548;2023-05-07T08:50:47;15.07;;;11.52;;
53062;SDS011;40529;52.172;10.548;2023-05-07T08:53:13;14.98;;;11.18;;
53062;SDS011;40529;52.172;10.548;2023-05-07T08:55:40;13.35;;;10.40;;
53062;SDS011;40529;52.172;10.548;2023-05-07T08:58:06;12.15;;;9.88;;
53062;SDS011;40529;52.172;10.548;2023-05-07T09:00:32;11.95;;;9.93;;
53062;SDS011;40529;52.172;10.548;2023-05-07T09:02:59;12.10;;;10.00;;
53062;SDS011;40529;52.172;10.548;2023-05-07T09:05:26;14.13;;;10.45;;
53062;SDS011;40529;52.172;10.548;2023-05-07T09:07:52;12.60;;;10.15;;
53062;SDS011;40529;52.172;10.548;2023-05-07T09:10:18;12.60;;;10.30;;
53062;SDS011;40529;52.172;10.548;2023-05-07T09:12:44;12.25;;;9.70;;
53062;SDS011;40529;52.172;10.548;2023-05-07T09:15:12;11.68;;;9.43;;
53062;SDS011;40529;52.172;10.548;2023-05-07T09:17:38;14.85;;;9.75;;
53062;SDS011;40529;52.172;10.548;2023-05-07T09:20:06;10.30;;;8.88;;
53062;SDS011;40529;52.172;10.548;2023-05-07T09:22:32;11.10;;;9.30;;
53062;SDS011;40529;52.172;10.548;2023-05-07T09:24:58;10.88;;;8.65;;
53062;SDS011;40529;52.172;10.548;2023-05-07T09:27:24;12.18;;;9.63;;
53062;SDS011;40529;52.172;10.548;2023-05-07T09:29:51;10.65;;;8.63;;
53062;SDS011;40529;52.172;10.548;2023-05-07T09:32:17;10.63;;;8.60;;
53062;SDS011;40529;52.172;10.548;2023-05-07T09:34:43;11.27;;;9.10;;
53062;SDS011;40529;52.172;10.548;2023-05-07T09:37:10;11.00;;;8.70;;
53062;SDS011;40529;52.172;10.548;2023-05-07T09:39:44;15.18;;;8.90;;
53062;SDS011;40529;52.172;10.548;2023-05-07T09:42:11;10.65;;;8.63;;
53062;SDS011;40529;52.172;10.548;2023-05-07T09:44:37;10.35;;;8.30;;
53062;SDS011;40529;52.172;10.548;2023-05-07T09:47:04;11.48;;;8.35;;
53062;SDS011;40529;52.172;10.548;2023-05-07T09:49:33;10.82;;;7.93;;
53062;SDS011;40529;52.172;10.548;2023-05-07T09:51:59;11.80;;;8.68;;
53062;SDS011;40529;52.172;10.548;2023-05-07T09:54:26;11.02;;;8.68;;
53062;SDS011;40529;52.172;10.548;2023-05-07T09:56:55;9.80;;;8.18;;
53062;SDS011;40529;52.172;10.548;2023-05-07T09:59:22;9.48;;;8.23;;
53062;SDS011;40529;52.172;10.548;2023-05-07T10:01:48;12.48;;;8.73;;
53062;SDS011;40529;52.172;10.548;2023-05-07T10:04:14;11.40;;;8.73;;
53062;SDS011;40529;52.172;10.548;2023-05-07T10:06:41;9.57;;;8.32;;
53062;SDS011;40529;52.172;10.548;2023-05-07T10:09:08;10.80;;;8.88;;
53062;SDS011;40529;52.172;10.548;2023-05-07T10:11:36;11.25;;;8.70;;
53062;SDS011;40529;52.172;10.548;2023-05-07T10:14:03;9.88;;;8.25;;
53062;SDS011;40529;52.172;10.548;2023-05-07T10:16:31;9.93;;;8.25;;
53062;SDS011;40529;52.172;10.548;2023-05-07T10:19:03;11.25;;;8.10;;
53062;SDS011;40529;52.172;10.548;2023-05-07T10:21:30;9.40;;;7.88;;
53062;SDS011;40529;52.172;10.548;2023-05-07T10:24:00;9.15;;;7.50;;
53062;SDS011;40529;52.172;10.548;2023-05-07T10:26:31;9.10;;;7.88;;
53062;SDS011;40529;52.172;10.548;2023-05-07T10:28:59;9.30;;;7.53;;
53062;SDS011;40529;52.172;10.548;2023-05-07T10:34:14;10.55;;;8.48;;
53062;SDS011;40529;52.172;10.548;2023-05-07T10:36:42;10.45;;;8.18;;
53062;SDS011;40529;52.172;10.548;2023-05-07T10:39:09;9.95;;;8.18;;
53062;SDS011;40529;52.172;10.548;2023-05-07T10:41:35;8.80;;;7.38;;
53062;SDS011;40529;52.172;10.548;2023-05-07T10:44:01;8.07;;;7.03;;
53062;SDS011;40529;52.172;10.548;2023-05-07T10:46:28;7.75;;;6.95;;
53062;SDS011;40529;52.172;10.548;2023-05-07T10:51:31;8.68;;;7.07;;
53062;SDS011;40529;52.172;10.548;2023-05-07T10:56:39;7.93;;;6.57;;
53062;SDS011;40529;52.172;10.548;2023-05-07T11:02:00;7.40;;;6.40;;
53062;SDS011;40529;52.172;10.548;2023-05-07T11:04:28;9.30;;;7.32;;
53062;SDS011;40529;52.172;10.548;2023-05-07T11:15:09;7.53;;;6.72;;
53062;SDS011;40529;52.172;10.548;2023-05-07T11:17:51;8.00;;;6.53;;
53062;SDS011;40529;52.172;10.548;2023-05-07T11:20:18;8.13;;;6.72;;
53062;SDS011;40529;52.172;10.548;2023-05-07T11:22:45;8.32;;;6.68;;
53062;SDS011;40529;52.172;10.548;2023-05-07T11:25:11;7.40;;;6.60;;
53062;SDS011;40529;52.172;10.548;2023-05-07T11:27:42;8.63;;;6.50;;
53062;SDS011;40529;52.172;10.548;2023-05-07T11:30:09;8.65;;;6.90;;
53062;SDS011;40529;52.172;10.548;2023-05-07T11:32:35;8.40;;;7.25;;
53062;SDS011;40529;52.172;10.548;2023-05-07T11:35:01;9.68;;;7.68;;
53062;SDS011;40529;52.172;10.548;2023-05-07T11:37:27;10.13;;;8.23;;
53062;SDS011;40529;52.172;10.548;2023-05-07T11:40:04;9.73;;;8.70;;
53062;SDS011;40529;52.172;10.548;2023-05-07T11:42:32;9.80;;;8.80;;
53062;SDS011;40529;52.172;10.548;2023-05-07T11:44:59;10.35;;;9.18;;
53062;SDS011;40529;52.172;10.548;2023-05-07T11:47:25;10.27;;;8.98;;
53062;SDS011;40529;52.172;10.548;2023-05-07T11:49:52;9.82;;;8.82;;
53062;SDS011;40529;52.172;10.548;2023-05-07T11:52:18;11.68;;;8.52;;
53062;SDS011;40529;52.172;10.548;2023-05-07T11:54:51;13.50;;;9.77;;
53062;SDS011;40529;52.172;10.548;2023-05-07T11:57:17;10.88;;;9.57;;
53062;SDS011;40529;52.172;10.548;2023-05-07T11:59:43;11.85;;;9.68;;
53062;SDS011;40529;52.172;10.548;2023-05-07T12:02:10;10.50;;;9.48;;
53062;SDS011;40529;52.172;10.548;2023-05-07T12:04:37;11.50;;;10.30;;
53062;SDS011;40529;52.172;10.548;2023-05-07T12:07:03;10.20;;;9.05;;
53062;SDS011;40529;52.172;10.548;2023-05-07T12:09:32;11.30;;;9.55;;
53062;SDS011;40529;52.172;10.548;2023-05-07T12:12:02;11.55;;;10.07;;
53062;SDS011;40529;52.172;10.548;2023-05-07T12:14:28;11.68;;;10.48;;
53062;SDS011;40529;52.172;10.548;2023-05-07T12:16:55;12.07;;;10.77;;
53062;SDS011;40529;52.172;10.548;2023-05-07T12:19:21;10.05;;;9.05;;
53062;SDS011;40529;52.172;10.548;2023-05-07T12:21:47;10.20;;;9.02;;
53062;SDS011;40529;52.172;10.548;2023-05-07T12:24:16;10.60;;;9.57;;
53062;SDS011;40529;52.172;10.548;2023-05-07T12:26:43;11.30;;;10.10;;
53062;SDS011;40529;52.172;10.548;2023-05-07T12:29:09;11.90;;;10.15;;
53062;SDS011;40529;52.172;10.548;2023-05-07T12:31:35;9.43;;;8.45;;
53062;SDS011;40529;52.172;10.548;2023-05-07T12:34:02;10.93;;;8.60;;
53062;SDS011;40529;52.172;10.548;2023-05-07T12:36:36;9.38;;;8.38;;
53062;SDS011;40529;52.172;10.548;2023-05-07T12:39:03;10.13;;;7.82;;
53062;SDS011;40529;52.172;10.548;2023-05-07T12:41:30;9.05;;;7.95;;
53062;SDS011;40529;52.172;10.548;2023-05-07T12:43:56;9.98;;;8.15;;
53062;SDS011;40529;52.172;10.548;2023-05-07T12:46:23;9.25;;;7.38;;
53062;SDS011;40529;52.172;10.548;2023-05-07T12:48:49;8.68;;;7.80;;
53062;SDS011;40529;52.172;10.548;2023-05-07T12:51:15;8.75;;;7.47;;
53062;SDS011;40529;52.172;10.548;2023-05-07T12:53:41;9.15;;;7.60;;
53062;SDS011;40529;52.172;10.548;2023-05-07T12:56:08;8.70;;;7.45;;
53062;SDS011;40529;52.172;10.548;2023-05-07T12:58:34;9.95;;;7.88;;
53062;SDS011;40529;52.172;10.548;2023-05-07T13:01:01;8.40;;;7.13;;
53062;SDS011;40529;52.172;10.548;2023-05-07T13:03:30;10.32;;;8.02;;
53062;SDS011;40529;52.172;10.548;2023-05-07T13:06:00;8.73;;;6.90;;
53062;SDS011;40529;52.172;10.548;2023-05-07T13:10:52;7.97;;;6.72;;
53062;SDS011;40529;52.172;10.548;2023-05-07T13:13:18;8.82;;;7.78;;
53062;SDS011;40529;52.172;10.548;2023-05-07T13:15:45;9.30;;;7.80;;
53062;SDS011;40529;52.172;10.548;2023-05-07T13:18:11;9.43;;;7.93;;
53062;SDS011;40529;52.172;10.548;2023-05-07T13:20:37;9.52;;;7.38;;
53062;SDS011;40529;52.172;10.548;2023-05-07T13:23:03;8.98;;;7.10;;
53062;SDS011;40529;52.172;10.548;2023-05-07T13:25:29;8.65;;;7.00;;
53062;SDS011;40529;52.172;10.548;2023-05-07T13:27:58;11.10;;;7.75;;
53062;SDS011;40529;52.172;10.548;2023-05-07T13:30:24;8.30;;;7.15;;
53062;SDS011;40529;52.172;10.548;2023-05-07T13:32:51;8.88;;;7.20;;
53062;SDS011;40529;52.172;10.548;2023-05-07T13:35:17;9.48;;;7.65;;
53062;SDS011;40529;52.172;10.548;2023-05-07T13:37:43;10.07;;;7.40;;
53062;SDS011;40529;52.172;10.548;2023-05-07T13:40:09;9.98;;;7.40;;
53062;SDS011;40529;52.172;10.548;2023-05-07T13:42:35;9.68;;;7.13;;
53062;SDS011;40529;52.172;10.548;2023-05-07T13:45:01;10.80;;;7.50;;
53062;SDS011;40529;52.172;10.548;2023-05-07T13:47:29;9.52;;;7.03;;
53062;SDS011;40529;52.172;10.548;2023-05-07T13:49:54;9.75;;;7.78;;
53062;SDS011;40529;52.172;10.548;2023-05-07T13:52:20;9.20;;;7.18;;
53062;SDS011;40529;52.172;10.548;2023-05-07T13:54:46;10.18;;;8.07;;
53062;SDS011;40529;52.172;10.548;2023-05-07T13:57:12;11.00;;;7.82;;
53062;SDS011;40529;52.172;10.548;2023-05-07T13:59:38;9.38;;;8.10;;
53062;SDS011;40529;52.172;10.548;2023-05-07T14:02:05;9.70;;;7.53;;
53062;SDS011;40529;52.172;10.548;2023-05-07T14:04:31;10.43;;;8.07;;
53062;SDS011;40529;52.172;10.548;2023-05-07T14:06:57;10.20;;;8.35;;
53062;SDS011;40529;52.172;10.548;2023-05-07T14:09:23;8.98;;;7.80;;
53062;SDS011;40529;52.172;10.548;2023-05-07T14:11:49;9.02;;;7.60;;
53062;SDS011;40529;52.172;10.548;2023-05-07T14:14:16;8.85;;;7.85;;
53062;SDS011;40529;52.172;10.548;2023-05-07T14:16:43;11.52;;;7.68;;
53062;SDS011;40529;52.172;10.548;2023-05-07T14:19:09;10.32;;;7.68;;
53062;SDS011;40529;52.172;10.548;2023-05-07T14:21:35;8.38;;;7.20;;
53062;SDS011;40529;52.172;10.548;2023-05-07T14:24:01;10.43;;;7.47;;
53062;SDS011;40529;52.172;10.548;2023-05-07T14:26:27;8.77;;;7.57;;
53062;SDS011;40529;52.172;10.548;2023-05-07T14:28:53;8.35;;;7.45;;
53062;SDS011;40529;52.172;10.548;2023-05-07T14:31:22;8.40;;;7.50;;
53062;SDS011;40529;52.172;10.548;2023-05-07T14:33:48;9.35;;;7.53;;